createdAt,value
2023-04-03T00:09:33.559Z,58.60
2023-04-03T00:24:36.238Z,61.52
2023-04-03T00:39:38.808Z,52.38
2023-04-03T00:54:42.648Z,57.37
2023-04-03T01:09:48.072Z,62.13
2023-04-03T01:24:52.251Z,51.74
2023-04-03T01:39:54.895Z,58.34
2023-04-03T01:54:57.479Z,60.19
2023-04-03T02:10:00.336Z,56.23
2023-04-03T02:25:03.871Z,58.12
2023-04-03T02:40:07.628Z,55.32
2023-04-03T02:55:16.934Z,62.48
2023-04-03T03:10:19.623Z,57.50
2023-04-03T03:25:22.487Z,58.64
2023-04-03T03:40:25.287Z,59.93
2023-04-03T03:55:28.446Z,56.20
2023-04-03T04:10:31.041Z,59.28
2023-04-03T04:25:33.880Z,59.58
2023-04-03T04:40:38.728Z,61.36
2023-04-03T04:55:41.403Z,57.76
2023-04-03T05:10:47.148Z,58.16
2023-04-03T05:25:51.163Z,49.13
2023-04-03T05:40:53.826Z,47.06
2023-04-03T05:55:56.440Z,43.42
2023-04-03T06:10:59.095Z,40.93
2023-04-03T06:26:01.855Z,38.60
2023-04-03T06:41:04.951Z,38.24
2023-04-03T06:56:08.855Z,38.75
2023-04-03T07:11:13.224Z,42.06
2023-04-03T07:26:15.969Z,41.79
2023-04-03T07:41:21.062Z,38.50
2023-04-03T07:56:23.897Z,40.44
2023-04-03T08:11:27.406Z,39.86
2023-04-03T08:26:30.165Z,38.88
2023-04-03T08:41:36.713Z,38.51
2023-04-03T08:56:39.928Z,36.13
2023-04-03T09:12:01.606Z,38.02
2023-04-03T09:27:11.056Z,39.22
2023-04-03T09:42:21.452Z,40.86
2023-04-03T09:57:34.095Z,38.95
2023-04-03T10:12:36.927Z,37.56
2023-04-03T10:27:49.901Z,38.18
2023-04-03T10:43:05.538Z,39.25
2023-04-03T10:58:25.087Z,39.60
2023-04-03T11:13:35.473Z,40.37
2023-04-03T11:28:39.011Z,42.78
2023-04-03T11:43:56.584Z,42.29
2023-04-03T11:59:11.439Z,43.25
2023-04-03T12:14:17.858Z,42.58
2023-04-03T12:29:24.787Z,41.95
2023-04-03T12:44:34.856Z,42.02
2023-04-03T12:59:37.918Z,43.17
2023-04-03T13:14:41.975Z,43.82
2023-04-03T13:29:49.953Z,43.61
2023-04-03T13:45:12.736Z,44.04
2023-04-03T14:00:38.727Z,43.93
2023-04-03T14:15:41.869Z,44.97
2023-04-03T14:30:45.122Z,44.18
2023-04-03T14:45:49.460Z,44.31
2023-04-03T15:00:52.357Z,43.91
2023-04-03T15:15:55.803Z,44.50
2023-04-03T15:30:59.009Z,45.47
2023-04-03T15:46:02.838Z,45.25
2023-04-03T16:01:06.851Z,46.88
2023-04-03T16:16:10.665Z,47.39
2023-04-03T16:31:13.849Z,47.88
2023-04-03T16:46:16.741Z,47.84
2023-04-03T17:01:21.066Z,48.61
2023-04-03T17:16:25.187Z,49.44
2023-04-03T17:31:28.111Z,48.72
2023-04-03T17:46:32.593Z,49.69
2023-04-03T18:01:36.789Z,50.09
2023-04-03T18:16:39.876Z,50.33
2023-04-03T18:31:47.689Z,50.79
2023-04-03T18:46:52.711Z,51.60
2023-04-03T19:01:56.477Z,52.28
2023-04-03T19:16:59.942Z,52.62
2023-04-03T19:32:02.964Z,53.53
2023-04-03T19:47:05.867Z,53.94
2023-04-03T20:02:09.112Z,54.18
2023-04-03T20:17:11.749Z,53.94
2023-04-03T20:32:16.376Z,54.24
2023-04-03T20:47:19.086Z,54.49
2023-04-03T21:02:22.729Z,53.94
2023-04-03T21:17:25.214Z,53.96
2023-04-03T21:32:27.845Z,54.41
2023-04-03T21:47:30.544Z,55.47
2023-04-03T22:02:36.176Z,56.63
2023-04-03T22:17:39.546Z,57.39
2023-04-03T22:32:42.178Z,58.37
2023-04-03T22:47:45.131Z,61.93
2023-04-03T23:02:47.865Z,51.49
2023-04-03T23:17:50.954Z,54.47
2023-04-03T23:32:53.768Z,57.37
2023-04-03T23:47:56.604Z,58.58
